createdAt,value
2018-07-14T00:02:28.850Z,14.00
2018-07-14T00:04:58.946Z,13.90
2018-07-14T00:07:28.914Z,13.90
2018-07-14T00:09:59.039Z,13.90
2018-07-14T00:12:28.951Z,13.80
2018-07-14T00:19:57.951Z,13.80
2018-07-14T00:22:27.704Z,13.70
2018-07-14T00:24:58.500Z,13.60
2018-07-14T00:27:27.951Z,13.40
2018-07-14T00:29:57.571Z,13.30
2018-07-14T00:32:27.616Z,13.20
2018-07-14T00:37:27.630Z,13.20
2018-07-14T00:39:57.538Z,13.10
2018-07-14T00:42:27.481Z,13.10
2018-07-14T00:44:57.274Z,13.20
2018-07-14T00:47:27.398Z,13.20
2018-07-14T00:49:57.139Z,13.20
2018-07-14T00:54:56.126Z,13.10
2018-07-14T00:57:25.698Z,13.00
2018-07-14T00:59:55.425Z,12.90
2018-07-14T01:02:25.092Z,13.00
2018-07-14T01:07:24.131Z,13.00
2018-07-14T01:09:54.008Z,12.90
2018-07-14T01:14:51.347Z,12.80
2018-07-14T01:17:19.264Z,12.80
2018-07-14T01:22:15.016Z,12.90
2018-07-14T01:24:49.646Z,12.90
2018-07-14T01:27:17.556Z,12.90
2018-07-14T01:29:45.491Z,12.90
2018-07-14T01:32:13.399Z,13.00
2018-07-14T01:34:41.412Z,13.10
2018-07-14T01:37:09.344Z,13.10
2018-07-14T01:39:37.237Z,13.10
2018-07-14T01:42:05.280Z,13.10
2018-07-14T01:44:33.203Z,13.00
2018-07-14T01:47:01.178Z,13.00
2018-07-14T01:49:29.093Z,13.00
2018-07-14T01:51:57.041Z,12.90
2018-07-14T01:54:24.991Z,12.90
2018-07-14T01:56:52.919Z,12.70
2018-07-14T01:59:20.923Z,12.70
2018-07-14T02:01:48.848Z,12.60
2018-07-14T02:04:16.821Z,12.50
2018-07-14T02:06:44.743Z,12.60
2018-07-14T02:09:12.691Z,12.60
2018-07-14T02:14:08.376Z,12.50
2018-07-14T02:16:36.306Z,12.40
2018-07-14T02:19:04.223Z,12.30
2018-07-14T02:21:32.228Z,12.30
2018-07-14T02:26:27.900Z,12.10
2018-07-14T02:28:55.861Z,12.00
2018-07-14T02:31:23.814Z,12.20
2018-07-14T02:36:19.485Z,12.30
2018-07-14T02:38:47.431Z,12.40
2018-07-14T02:41:15.405Z,12.40
2018-07-14T02:43:43.405Z,12.30
2018-07-14T02:46:11.404Z,12.20
2018-07-14T02:48:39.304Z,12.20
2018-07-14T02:51:07.415Z,12.20
2018-07-14T02:53:35.299Z,12.10
2018-07-14T02:56:03.276Z,12.10
2018-07-14T02:58:31.457Z,12.10
2018-07-14T03:00:59.421Z,12.10
2018-07-14T03:03:27.392Z,12.10
2018-07-14T03:05:55.339Z,12.10
2018-07-14T03:08:23.248Z,12.00
2018-07-14T03:10:51.168Z,12.00
2018-07-14T03:13:19.072Z,12.00
2018-07-14T03:15:46.984Z,12.10
2018-07-14T03:23:10.472Z,12.20
2018-07-14T03:25:38.384Z,12.10
2018-07-14T03:28:06.365Z,12.20
2018-07-14T03:33:02.062Z,12.30
2018-07-14T03:35:30.018Z,12.30
2018-07-14T03:42:53.505Z,12.40
2018-07-14T03:45:21.502Z,12.40
2018-07-14T03:52:44.978Z,12.30
2018-07-14T03:55:12.897Z,12.30
2018-07-14T03:57:40.850Z,12.30
2018-07-14T04:02:36.493Z,13.00
2018-07-14T04:05:04.716Z,13.50
2018-07-14T04:07:32.907Z,14.00
2018-07-14T04:10:00.835Z,14.40
2018-07-14T04:12:28.758Z,14.80
2018-07-14T04:17:24.402Z,15.60
2018-07-14T04:22:20.475Z,16.20
2018-07-14T04:24:48.775Z,16.50
2018-07-14T04:27:16.820Z,16.70
2018-07-14T04:29:44.913Z,16.90
2018-07-14T04:32:13.057Z,17.20
2018-07-14T04:34:41.149Z,17.20
2018-07-14T04:37:09.312Z,17.50
2018-07-14T04:39:37.500Z,17.80
2018-07-14T04:42:06.493Z,18.00
2018-07-14T04:44:35.228Z,17.80
2018-07-14T04:47:03.588Z,17.90
2018-07-14T04:49:31.752Z,18.60
2018-07-14T04:51:59.812Z,19.00
2018-07-14T04:54:27.863Z,19.40
2018-07-14T04:56:55.969Z,20.10
2018-07-14T04:59:24.212Z,20.30
2018-07-14T05:01:52.316Z,20.00
2018-07-14T05:04:20.448Z,20.00
2018-07-14T05:09:16.508Z,20.30
2018-07-14T05:11:44.733Z,20.90
2018-07-14T05:14:13.386Z,21.50
2018-07-14T05:16:41.747Z,22.10
2018-07-14T05:19:10.068Z,22.60
2018-07-14T05:21:38.196Z,22.80
2018-07-14T05:26:34.333Z,23.70
2018-07-14T05:31:30.296Z,23.90
2018-07-14T05:34:01.979Z,23.60
2018-07-14T05:36:30.036Z,23.50
2018-07-14T05:38:58.096Z,23.90
2018-07-14T05:41:26.179Z,24.40
2018-07-14T05:43:54.388Z,24.70
2018-07-14T05:46:22.641Z,25.50
2018-07-14T05:48:50.688Z,25.80
2018-07-14T05:51:18.790Z,25.90
2018-07-14T05:53:46.945Z,25.60
2018-07-14T05:56:15.145Z,24.60
2018-07-14T05:58:43.285Z,23.90
2018-07-14T06:03:39.244Z,23.70
2018-07-14T06:06:07.408Z,24.60
2018-07-14T06:08:35.512Z,25.30
2018-07-14T06:11:03.764Z,25.30
2018-07-14T06:13:31.863Z,23.90
2018-07-14T06:16:00.004Z,22.60
2018-07-14T06:18:28.219Z,21.70
2018-07-14T06:20:56.296Z,21.10
2018-07-14T06:23:24.367Z,20.80
2018-07-14T06:25:52.440Z,20.90
2018-07-14T06:28:20.468Z,20.80
2018-07-14T06:30:48.678Z,20.90
2018-07-14T06:33:16.731Z,21.00
2018-07-14T06:35:44.946Z,21.20
2018-07-14T06:38:13.248Z,21.40
2018-07-14T06:40:41.286Z,21.40
2018-07-14T06:43:09.359Z,21.40
2018-07-14T06:45:37.423Z,21.30
2018-07-14T06:48:05.599Z,21.30
2018-07-14T06:50:33.695Z,21.50
2018-07-14T06:53:01.718Z,21.70
2018-07-14T06:55:29.789Z,22.10
2018-07-14T07:00:25.727Z,22.40
2018-07-14T07:05:21.683Z,22.20
2018-07-14T07:07:49.874Z,22.30
2018-07-14T07:10:18.024Z,22.30
2018-07-14T07:15:13.980Z,22.40
2018-07-14T07:17:42.196Z,22.50
2018-07-14T07:20:10.240Z,22.70
2018-07-14T07:22:38.427Z,22.70
2018-07-14T07:25:06.679Z,23.00
2018-07-14T07:27:34.883Z,23.30
2018-07-14T07:30:03.144Z,23.50
2018-07-14T07:32:31.414Z,23.60
2018-07-14T07:34:59.714Z,23.90
2018-07-14T07:37:27.753Z,24.10
2018-07-14T07:39:55.853Z,24.20
2018-07-14T07:42:23.934Z,24.40
2018-07-14T07:44:51.995Z,24.40
2018-07-14T07:47:20.262Z,24.20
2018-07-14T07:49:48.344Z,24.60
2018-07-14T07:52:16.401Z,24.90
2018-07-14T07:54:44.647Z,25.00
2018-07-14T07:57:13.100Z,25.10
2018-07-14T07:59:41.166Z,25.20
2018-07-14T08:02:09.675Z,25.30
2018-07-14T08:04:37.713Z,25.70
2018-07-14T08:07:06.360Z,26.10
2018-07-14T08:12:02.444Z,26.10
2018-07-14T08:14:30.600Z,25.80
2018-07-14T08:16:58.689Z,25.70
2018-07-14T08:19:26.837Z,25.90
2018-07-14T08:21:55.147Z,26.10
2018-07-14T08:24:23.263Z,26.40
2018-07-14T08:26:51.407Z,26.50
2018-07-14T08:29:19.441Z,26.80
2018-07-14T08:31:47.650Z,26.90
2018-07-14T08:34:15.906Z,27.00
2018-07-14T08:36:43.944Z,27.10
2018-07-14T08:39:12.164Z,27.30
2018-07-14T08:41:40.314Z,27.40
2018-07-14T08:44:08.719Z,27.60
2018-07-14T08:46:36.880Z,27.60
2018-07-14T08:49:05.494Z,27.60
2018-07-14T08:51:33.649Z,27.50
2018-07-14T08:54:01.652Z,27.40
2018-07-14T08:56:29.671Z,27.30
2018-07-14T08:58:57.775Z,27.30
2018-07-14T09:01:25.808Z,27.30
2018-07-14T09:06:21.912Z,27.50
2018-07-14T09:08:49.936Z,27.40
2018-07-14T09:13:46.099Z,27.50
2018-07-14T09:16:14.409Z,27.60
2018-07-14T09:18:42.474Z,27.50
2018-07-14T09:21:10.545Z,27.60
2018-07-14T09:23:38.916Z,27.90
2018-07-14T09:26:07.090Z,27.90
2018-07-14T09:28:35.140Z,28.10
2018-07-14T09:31:03.426Z,28.20
2018-07-14T09:33:31.516Z,28.10
2018-07-14T09:35:59.569Z,28.20
2018-07-14T09:38:27.863Z,28.50
2018-07-14T09:40:55.907Z,28.70
2018-07-14T09:45:52.063Z,28.60
2018-07-14T09:48:20.267Z,28.80
2018-07-14T09:50:48.360Z,29.00
2018-07-14T09:53:16.616Z,29.10
2018-07-14T09:55:44.741Z,28.50
2018-07-14T09:58:12.954Z,28.30
2018-07-14T10:00:46.715Z,28.30
2018-07-14T10:03:15.008Z,28.20
2018-07-14T10:05:43.215Z,28.20
2018-07-14T10:08:11.379Z,28.30
2018-07-14T10:10:39.572Z,28.20
2018-07-14T10:13:07.925Z,27.90
2018-07-14T10:15:35.932Z,27.70
2018-07-14T10:18:04.135Z,27.30
2018-07-14T10:20:32.367Z,27.20
2018-07-14T10:23:00.733Z,26.80
2018-07-14T10:25:28.947Z,26.50
2018-07-14T10:27:57.008Z,26.30
2018-07-14T10:30:25.268Z,26.10
2018-07-14T10:32:53.362Z,26.00
2018-07-14T10:35:21.545Z,25.90
2018-07-14T10:37:49.692Z,25.80
2018-07-14T10:40:18.009Z,25.70
2018-07-14T10:42:46.088Z,25.60
2018-07-14T10:45:14.345Z,25.70
2018-07-14T10:47:42.404Z,25.80
2018-07-14T10:50:10.525Z,25.80
2018-07-14T10:52:38.665Z,25.80
2018-07-14T10:55:07.214Z,25.80
2018-07-14T10:57:35.461Z,25.90
2018-07-14T11:00:03.885Z,26.10
2018-07-14T11:02:32.025Z,26.30
2018-07-14T11:05:00.146Z,26.50
2018-07-14T11:07:28.261Z,26.50
2018-07-14T11:09:56.414Z,26.60
2018-07-14T11:12:24.669Z,26.50
2018-07-14T11:14:52.705Z,26.50
2018-07-14T11:17:21.036Z,26.60
2018-07-14T11:19:49.325Z,27.00
2018-07-14T11:22:17.518Z,27.20
2018-07-14T11:24:45.907Z,27.40
2018-07-14T11:27:13.981Z,27.70
2018-07-14T11:29:42.358Z,28.10
2018-07-14T11:32:10.651Z,28.80
2018-07-14T11:34:38.861Z,29.20
2018-07-14T11:37:06.962Z,28.60
2018-07-14T11:39:35.316Z,28.20
2018-07-14T11:42:03.750Z,27.90
2018-07-14T11:44:31.769Z,27.50
2018-07-14T11:47:00.067Z,27.10
2018-07-14T11:49:28.263Z,26.10
2018-07-14T11:51:56.396Z,25.10
2018-07-14T11:54:24.726Z,24.80
2018-07-14T11:56:52.903Z,24.90
2018-07-14T11:59:21.033Z,24.70
2018-07-14T12:01:49.124Z,24.90
2018-07-14T12:04:17.442Z,25.00
2018-07-14T12:06:45.772Z,24.20
2018-07-14T12:09:14.080Z,23.50
2018-07-14T12:11:42.234Z,23.00
2018-07-14T12:14:10.677Z,22.50
2018-07-14T12:19:06.865Z,22.90
2018-07-14T12:21:35.011Z,23.60
2018-07-14T12:24:03.210Z,24.10
2018-07-14T12:26:31.384Z,24.70
2018-07-14T12:28:59.516Z,25.50
2018-07-14T12:31:27.712Z,26.20
2018-07-14T12:33:55.727Z,26.50
2018-07-14T12:36:23.780Z,26.80
2018-07-14T12:38:51.891Z,26.70
2018-07-14T12:41:20.047Z,26.00
2018-07-14T12:43:48.195Z,25.60
2018-07-14T12:46:16.290Z,25.50
2018-07-14T12:48:44.335Z,25.70
2018-07-14T12:51:12.442Z,26.10
2018-07-14T12:53:40.556Z,26.60
2018-07-14T12:56:08.539Z,26.70
2018-07-14T13:01:04.599Z,26.60
2018-07-14T13:03:32.888Z,26.70
2018-07-14T13:06:01.049Z,26.70
2018-07-14T13:08:29.140Z,26.20
2018-07-14T13:10:57.153Z,26.00
2018-07-14T13:13:25.203Z,25.80
2018-07-14T13:15:53.281Z,25.70
2018-07-14T13:18:21.320Z,25.60
2018-07-14T13:20:49.608Z,26.00
2018-07-14T13:23:17.779Z,26.00
2018-07-14T13:25:45.989Z,26.10
2018-07-14T13:28:14.124Z,26.10
2018-07-14T13:30:42.437Z,26.00
2018-07-14T13:33:10.692Z,25.90
2018-07-14T13:35:38.772Z,25.60
2018-07-14T13:38:06.918Z,25.90
2018-07-14T13:45:30.956Z,25.60
2018-07-14T13:47:59.252Z,25.50
2018-07-14T13:50:27.396Z,25.40
2018-07-14T13:52:55.484Z,25.60
2018-07-14T13:55:23.527Z,25.80
2018-07-14T14:00:19.904Z,25.70
2018-07-14T14:02:47.992Z,25.90
2018-07-14T14:05:16.041Z,25.80
2018-07-14T14:07:44.237Z,25.70
2018-07-14T14:10:12.386Z,26.00
2018-07-14T14:12:40.460Z,26.40
2018-07-14T14:15:08.685Z,26.30
2018-07-14T14:17:37.044Z,26.70
2018-07-14T14:20:05.394Z,26.60
2018-07-14T14:22:33.582Z,26.60
2018-07-14T14:25:01.578Z,26.50
2018-07-14T14:27:29.632Z,26.80
2018-07-14T14:29:58.111Z,27.30
2018-07-14T14:32:26.375Z,27.80
2018-07-14T14:34:54.768Z,27.30
2018-07-14T14:37:22.869Z,26.80
2018-07-14T14:39:50.906Z,27.10
2018-07-14T14:42:19.213Z,26.80
2018-07-14T14:44:47.269Z,26.80
2018-07-14T14:47:15.484Z,26.80
2018-07-14T14:49:43.606Z,26.80
2018-07-14T14:52:11.698Z,26.50
2018-07-14T14:54:39.868Z,26.70
2018-07-14T14:57:08.055Z,26.50
2018-07-14T14:59:36.119Z,26.80
2018-07-14T15:02:04.378Z,27.30
2018-07-14T15:04:32.505Z,27.40
2018-07-14T15:07:00.489Z,27.30
2018-07-14T15:09:28.600Z,27.00
2018-07-14T15:11:56.815Z,26.70
2018-07-14T15:14:24.966Z,26.70
2018-07-14T15:16:53.096Z,26.70
2018-07-14T15:19:21.213Z,26.60
2018-07-14T15:21:49.512Z,26.40
2018-07-14T15:24:17.535Z,26.50
2018-07-14T15:29:13.524Z,26.70
2018-07-14T15:31:41.688Z,26.70
2018-07-14T15:34:10.085Z,26.80
2018-07-14T15:36:38.325Z,27.30
2018-07-14T15:39:08.141Z,27.00
2018-07-14T15:41:37.663Z,27.40
2018-07-14T15:44:05.857Z,27.50
2018-07-14T15:46:33.912Z,27.30
2018-07-14T15:49:01.956Z,26.70
2018-07-14T15:53:58.021Z,26.30
2018-07-14T15:56:26.205Z,26.80
2018-07-14T15:58:54.276Z,27.40
2018-07-14T16:01:22.454Z,27.80
2018-07-14T16:03:50.504Z,27.50
2018-07-14T16:06:18.643Z,27.40
2018-07-14T16:08:46.682Z,27.10
2018-07-14T16:11:14.827Z,27.20
2018-07-14T16:13:42.935Z,26.90
2018-07-14T16:16:11.008Z,27.00
2018-07-14T16:18:39.081Z,26.90
2018-07-14T16:21:07.319Z,27.00
2018-07-14T16:23:35.529Z,26.80
2018-07-14T16:26:03.697Z,26.50
2018-07-14T16:28:31.820Z,26.40
2018-07-14T16:30:59.889Z,26.40
2018-07-14T16:33:27.894Z,26.40
2018-07-14T16:35:56.190Z,26.40
2018-07-14T16:38:24.145Z,27.10
2018-07-14T16:40:52.249Z,27.20
2018-07-14T16:43:20.310Z,26.60
2018-07-14T16:45:48.512Z,26.80
2018-07-14T16:48:16.661Z,27.50
2018-07-14T16:50:44.935Z,27.60
2018-07-14T16:53:13.017Z,27.10
2018-07-14T16:55:41.172Z,27.70
2018-07-14T16:58:09.368Z,28.30
2018-07-14T17:00:37.488Z,30.00
2018-07-14T17:03:05.734Z,29.80
2018-07-14T17:05:34.144Z,28.70
2018-07-14T17:08:02.597Z,27.90
2018-07-14T17:10:30.648Z,27.20
2018-07-14T17:12:58.742Z,26.40
2018-07-14T17:15:27.000Z,26.00
2018-07-14T17:17:55.075Z,25.60
2018-07-14T17:20:23.216Z,25.50
2018-07-14T17:25:19.279Z,25.60
2018-07-14T17:27:47.385Z,25.30
2018-07-14T17:30:15.437Z,25.20
2018-07-14T17:32:43.520Z,25.10
2018-07-14T17:35:11.787Z,25.20
2018-07-14T17:37:39.872Z,26.10
2018-07-14T17:40:08.008Z,27.90
2018-07-14T17:45:04.428Z,27.80
2018-07-14T17:47:32.577Z,27.10
2018-07-14T17:50:00.725Z,27.10
2018-07-14T17:52:28.935Z,27.50
2018-07-14T17:54:57.085Z,27.90
2018-07-14T17:57:25.287Z,28.60
2018-07-14T17:59:53.480Z,27.80
2018-07-14T18:02:21.661Z,26.90
2018-07-14T18:04:49.691Z,26.80
2018-07-14T18:07:17.997Z,26.20
2018-07-14T18:09:46.056Z,25.60
2018-07-14T18:12:14.237Z,25.10
2018-07-14T18:14:42.410Z,25.20
2018-07-14T18:17:10.790Z,26.00
2018-07-14T18:19:38.837Z,26.50
2018-07-14T18:22:06.879Z,26.40
2018-07-14T18:24:34.985Z,25.30
2018-07-14T18:27:03.279Z,24.50
2018-07-14T18:29:31.428Z,23.80
2018-07-14T18:34:27.368Z,22.80
2018-07-14T18:36:55.469Z,22.40
2018-07-14T18:39:23.643Z,22.00
2018-07-14T18:41:51.846Z,21.70
2018-07-14T18:44:19.864Z,21.50
2018-07-14T18:49:16.061Z,21.10
2018-07-14T18:51:44.126Z,20.90
2018-07-14T18:54:12.253Z,20.80
2018-07-14T18:59:08.310Z,20.50
2018-07-14T19:04:04.476Z,20.20
2018-07-14T19:06:32.663Z,20.10
2018-07-14T19:09:00.866Z,19.90
2018-07-14T19:11:29.109Z,19.80
2018-07-14T19:13:57.345Z,19.70
2018-07-14T19:18:53.332Z,19.50
2018-07-14T19:21:21.602Z,19.50
2018-07-14T19:23:49.705Z,19.30
2018-07-14T19:26:18.178Z,19.20
2018-07-14T19:28:46.367Z,19.10
2018-07-14T19:33:43.313Z,18.90
2018-07-14T19:36:11.357Z,18.80
2018-07-14T19:38:39.515Z,18.70
2018-07-14T19:43:35.805Z,18.50
2018-07-14T19:46:03.868Z,18.30
2018-07-14T19:48:32.064Z,18.20
2018-07-14T19:51:00.241Z,18.20
2018-07-14T19:53:28.535Z,18.10
2018-07-14T19:55:56.760Z,17.90
2018-07-14T19:58:24.837Z,17.80
2018-07-14T20:00:53.125Z,17.70
2018-07-14T20:03:21.219Z,17.70
2018-07-14T20:05:49.467Z,17.70
2018-07-14T20:08:17.556Z,17.60
2018-07-14T20:10:45.818Z,17.50
2018-07-14T20:13:13.908Z,17.50
2018-07-14T20:15:42.065Z,17.50
2018-07-14T20:18:10.232Z,17.40
2018-07-14T20:23:10.308Z,17.30
2018-07-14T20:25:40.944Z,17.30
2018-07-14T20:28:10.202Z,17.30
2018-07-14T20:30:38.280Z,17.20
2018-07-14T20:33:06.381Z,17.10
2018-07-14T20:35:34.437Z,17.00
2018-07-14T20:38:09.700Z,16.90
2018-07-14T20:40:37.885Z,16.90
2018-07-14T20:43:05.954Z,16.90
2018-07-14T20:45:34.152Z,16.90
2018-07-14T20:48:03.013Z,16.80
2018-07-14T20:50:31.081Z,16.70
2018-07-14T20:52:59.165Z,16.40
2018-07-14T20:55:28.081Z,16.10
2018-07-14T20:57:56.845Z,15.70
2018-07-14T21:00:25.009Z,15.60
2018-07-14T21:02:53.091Z,15.50
2018-07-14T21:05:21.590Z,15.50
2018-07-14T21:07:49.645Z,15.60
2018-07-14T21:10:18.088Z,15.80
2018-07-14T21:17:50.009Z,15.90
2018-07-14T21:20:18.077Z,15.90
2018-07-14T21:22:46.595Z,15.80
2018-07-14T21:25:14.860Z,15.70
2018-07-14T21:27:43.042Z,15.60
2018-07-14T21:30:11.189Z,15.40
2018-07-14T21:32:39.632Z,15.20
2018-07-14T21:35:07.983Z,15.10
2018-07-14T21:37:36.357Z,15.00
2018-07-14T21:40:04.764Z,14.90
2018-07-14T21:42:32.916Z,14.90
2018-07-14T21:45:01.095Z,14.90
2018-07-14T21:47:29.280Z,14.90
2018-07-14T21:49:57.413Z,14.90
2018-07-14T21:52:28.065Z,14.80
2018-07-14T21:54:56.225Z,14.90
2018-07-14T21:57:24.329Z,14.80
2018-07-14T21:59:52.363Z,14.70
2018-07-14T22:04:48.407Z,14.80
2018-07-14T22:09:44.380Z,14.90
2018-07-14T22:12:12.585Z,14.90
2018-07-14T22:14:40.728Z,14.90
2018-07-14T22:17:08.980Z,14.90
2018-07-14T22:19:37.279Z,14.70
2018-07-14T22:22:05.450Z,14.40
2018-07-14T22:24:33.542Z,14.20
2018-07-14T22:27:01.581Z,14.20
2018-07-14T22:29:29.714Z,14.10
2018-07-14T22:31:57.729Z,14.10
2018-07-14T22:34:25.834Z,14.30
2018-07-14T22:36:54.190Z,14.40
2018-07-14T22:39:22.495Z,14.60
2018-07-14T22:41:50.639Z,14.50
2018-07-14T22:44:19.251Z,14.20
2018-07-14T22:46:47.292Z,14.00
2018-07-14T22:51:43.241Z,13.80
2018-07-14T22:54:11.431Z,13.90
2018-07-14T22:56:39.479Z,13.90
2018-07-14T23:01:35.416Z,13.80
2018-07-14T23:06:31.581Z,13.60
2018-07-14T23:08:59.684Z,13.60
2018-07-14T23:11:27.712Z,13.60
2018-07-14T23:16:24.177Z,13.40
2018-07-14T23:18:52.284Z,13.30
2018-07-14T23:21:20.421Z,13.30
2018-07-14T23:23:48.537Z,13.30
2018-07-14T23:26:16.669Z,13.20
2018-07-14T23:28:44.776Z,13.20
2018-07-14T23:31:12.804Z,13.10
2018-07-14T23:36:08.853Z,13.10
2018-07-14T23:38:37.464Z,13.20
2018-07-14T23:41:05.768Z,13.40
2018-07-14T23:43:33.920Z,13.40
2018-07-14T23:46:01.974Z,13.40
2018-07-14T23:48:30.159Z,13.20
2018-07-14T23:50:58.240Z,13.10
2018-07-14T23:53:26.337Z,13.00
2018-07-14T23:55:54.347Z,13.00
